Terminal Aerodrome Forecast
Issued by NWS

Home | Current Version | Previous Version | Text Only | Print | Product List | Glossary On
Versions: 1 2 3 4 5 6 7 8 9 10 11 12 13 14 15 16 17 18 19 20 21 22 23
000
FTUS45 KRIW 050529
TAFPNA
TAF
KPNA 050529Z 0506/0606 29005KT P6SM SCT100
     FM052000 27015G25KT P6SM SCT070 SCT100
     FM052200 28014G22KT P6SM VCTS SCT060CB BKN080
     FM060200 30014KT P6SM VCSH BKN070
      AMD LTD TO CLD VIS AND WIND=

USA.gov is the U.S. government's official web portal to all federal, state and local government web resources and services.